sensor_id;sensor_type;location;lat;lon;timestamp;P1;durP1;ratioP1;P2;durP2;ratioP2
42514;SDS011;28144;49.920;18.730;2023-11-19T00:02:20;50.60;;;21.77;;
42514;SDS011;28144;49.920;18.730;2023-11-19T00:04:46;47.60;;;20.83;;
42514;SDS011;28144;49.920;18.730;2023-11-19T00:07:12;53.43;;;21.17;;
42514;SDS011;28144;49.920;18.730;2023-11-19T00:09:39;49.23;;;20.50;;
42514;SDS011;28144;49.920;18.730;2023-11-19T00:12:06;50.17;;;21.08;;
42514;SDS011;28144;49.920;18.730;2023-11-19T00:14:32;52.58;;;21.55;;
42514;SDS011;28144;49.920;18.730;2023-11-19T00:17:00;53.97;;;22.07;;
42514;SDS011;28144;49.920;18.730;2023-11-19T00:19:25;61.43;;;24.27;;
42514;SDS011;28144;49.920;18.730;2023-11-19T00:21:52;63.10;;;24.42;;
42514;SDS011;28144;49.920;18.730;2023-11-19T00:24:18;61.53;;;23.60;;
42514;SDS011;28144;49.920;18.730;2023-11-19T00:26:44;58.47;;;24.45;;
42514;SDS011;28144;49.920;18.730;2023-11-19T00:29:10;62.80;;;24.00;;
42514;SDS011;28144;49.920;18.730;2023-11-19T00:31:36;64.53;;;24.93;;
42514;SDS011;28144;49.920;18.730;2023-11-19T00:34:02;72.90;;;27.53;;
42514;SDS011;28144;49.920;18.730;2023-11-19T00:36:28;69.72;;;30.55;;
42514;SDS011;28144;49.920;18.730;2023-11-19T00:38:54;72.50;;;28.80;;
42514;SDS011;28144;49.920;18.730;2023-11-19T00:41:20;60.30;;;26.27;;
42514;SDS011;28144;49.920;18.730;2023-11-19T00:43:47;58.37;;;24.80;;
42514;SDS011;28144;49.920;18.730;2023-11-19T00:46:14;62.07;;;26.50;;
42514;SDS011;28144;49.920;18.730;2023-11-19T00:48:40;51.50;;;22.97;;
42514;SDS011;28144;49.920;18.730;2023-11-19T00:51:07;54.92;;;22.92;;
42514;SDS011;28144;49.920;18.730;2023-11-19T00:53:33;73.73;;;28.80;;
42514;SDS011;28144;49.920;18.730;2023-11-19T00:56:02;77.97;;;30.73;;
42514;SDS011;28144;49.920;18.730;2023-11-19T00:58:28;98.43;;;38.20;;
42514;SDS011;28144;49.920;18.730;2023-11-19T01:00:55;130.23;;;50.33;;
42514;SDS011;28144;49.920;18.730;2023-11-19T01:03:22;110.60;;;39.93;;
42514;SDS011;28144;49.920;18.730;2023-11-19T01:05:48;109.15;;;41.08;;
42514;SDS011;28144;49.920;18.730;2023-11-19T01:08:14;116.50;;;47.63;;
42514;SDS011;28144;49.920;18.730;2023-11-19T01:10:41;93.67;;;38.43;;
42514;SDS011;28144;49.920;18.730;2023-11-19T01:13:07;95.30;;;36.67;;
42514;SDS011;28144;49.920;18.730;2023-11-19T01:15:33;115.30;;;44.53;;
42514;SDS011;28144;49.920;18.730;2023-11-19T01:17:58;84.30;;;34.37;;
42514;SDS011;28144;49.920;18.730;2023-11-19T01:20:24;96.60;;;35.80;;
42514;SDS011;28144;49.920;18.730;2023-11-19T01:22:51;85.87;;;34.40;;
42514;SDS011;28144;49.920;18.730;2023-11-19T01:25:17;88.60;;;34.78;;
42514;SDS011;28144;49.920;18.730;2023-11-19T01:27:43;85.80;;;34.77;;
42514;SDS011;28144;49.920;18.730;2023-11-19T01:30:09;85.10;;;34.47;;
42514;SDS011;28144;49.920;18.730;2023-11-19T01:32:38;91.73;;;35.40;;
42514;SDS011;28144;49.920;18.730;2023-11-19T01:35:04;77.57;;;32.78;;
42514;SDS011;28144;49.920;18.730;2023-11-19T01:37:30;79.33;;;33.30;;
42514;SDS011;28144;49.920;18.730;2023-11-19T01:39:57;83.03;;;33.40;;
42514;SDS011;28144;49.920;18.730;2023-11-19T01:42:23;88.57;;;35.20;;
42514;SDS011;28144;49.920;18.730;2023-11-19T01:44:59;84.63;;;35.37;;
42514;SDS011;28144;49.920;18.730;2023-11-19T01:47:26;84.90;;;34.43;;
42514;SDS011;28144;49.920;18.730;2023-11-19T01:49:53;85.70;;;34.57;;
42514;SDS011;28144;49.920;18.730;2023-11-19T01:52:19;96.10;;;37.43;;
42514;SDS011;28144;49.920;18.730;2023-11-19T01:54:45;88.70;;;34.83;;
42514;SDS011;28144;49.920;18.730;2023-11-19T01:57:12;83.80;;;34.83;;
42514;SDS011;28144;49.920;18.730;2023-11-19T01:59:39;91.57;;;34.92;;
42514;SDS011;28144;49.920;18.730;2023-11-19T02:02:05;89.53;;;36.88;;
42514;SDS011;28144;49.920;18.730;2023-11-19T02:04:31;100.22;;;39.80;;
42514;SDS011;28144;49.920;18.730;2023-11-19T02:06:58;81.85;;;34.55;;
42514;SDS011;28144;49.920;18.730;2023-11-19T02:09:24;82.85;;;35.53;;
42514;SDS011;28144;49.920;18.730;2023-11-19T02:11:50;95.20;;;38.27;;
42514;SDS011;28144;49.920;18.730;2023-11-19T02:16:43;128.07;;;44.70;;
42514;SDS011;28144;49.920;18.730;2023-11-19T02:19:09;148.70;;;52.72;;
42514;SDS011;28144;49.920;18.730;2023-11-19T02:21:36;163.80;;;59.90;;
42514;SDS011;28144;49.920;18.730;2023-11-19T02:24:03;206.63;;;73.15;;
42514;SDS011;28144;49.920;18.730;2023-11-19T02:26:47;155.87;;;59.47;;
42514;SDS011;28144;49.920;18.730;2023-11-19T02:29:21;162.97;;;56.37;;
42514;SDS011;28144;49.920;18.730;2023-11-19T02:31:47;151.23;;;55.73;;
42514;SDS011;28144;49.920;18.730;2023-11-19T02:34:13;149.27;;;56.83;;
42514;SDS011;28144;49.920;18.730;2023-11-19T02:36:39;147.20;;;54.57;;
42514;SDS011;28144;49.920;18.730;2023-11-19T02:39:12;159.33;;;57.97;;
42514;SDS011;28144;49.920;18.730;2023-11-19T02:41:38;148.65;;;57.40;;
42514;SDS011;28144;49.920;18.730;2023-11-19T02:44:05;152.82;;;54.88;;
42514;SDS011;28144;49.920;18.730;2023-11-19T02:46:31;148.23;;;54.90;;
42514;SDS011;28144;49.920;18.730;2023-11-19T02:48:57;132.40;;;51.53;;
42514;SDS011;28144;49.920;18.730;2023-11-19T02:51:23;138.23;;;53.33;;
42514;SDS011;28144;49.920;18.730;2023-11-19T02:53:49;131.77;;;46.78;;
42514;SDS011;28144;49.920;18.730;2023-11-19T02:56:15;133.57;;;48.27;;
42514;SDS011;28144;49.920;18.730;2023-11-19T02:58:45;171.83;;;61.37;;
42514;SDS011;28144;49.920;18.730;2023-11-19T03:01:12;132.33;;;53.17;;
42514;SDS011;28144;49.920;18.730;2023-11-19T03:03:49;135.17;;;51.97;;
42514;SDS011;28144;49.920;18.730;2023-11-19T03:06:20;112.70;;;46.90;;
42514;SDS011;28144;49.920;18.730;2023-11-19T03:08:47;131.40;;;48.13;;
42514;SDS011;28144;49.920;18.730;2023-11-19T03:11:13;132.98;;;52.70;;
42514;SDS011;28144;49.920;18.730;2023-11-19T03:13:39;145.52;;;52.33;;
42514;SDS011;28144;49.920;18.730;2023-11-19T03:16:05;137.37;;;52.87;;
42514;SDS011;28144;49.920;18.730;2023-11-19T03:18:31;177.57;;;64.35;;
42514;SDS011;28144;49.920;18.730;2023-11-19T03:20:58;125.15;;;47.13;;
42514;SDS011;28144;49.920;18.730;2023-11-19T03:23:24;128.52;;;47.75;;
42514;SDS011;28144;49.920;18.730;2023-11-19T03:25:53;132.13;;;48.17;;
42514;SDS011;28144;49.920;18.730;2023-11-19T03:28:19;130.05;;;47.25;;
42514;SDS011;28144;49.920;18.730;2023-11-19T03:30:45;138.03;;;50.03;;
42514;SDS011;28144;49.920;18.730;2023-11-19T03:33:11;130.10;;;48.45;;
42514;SDS011;28144;49.920;18.730;2023-11-19T03:35:36;136.70;;;47.17;;
42514;SDS011;28144;49.920;18.730;2023-11-19T03:38:02;127.10;;;47.03;;
42514;SDS011;28144;49.920;18.730;2023-11-19T03:40:28;127.23;;;48.87;;
42514;SDS011;28144;49.920;18.730;2023-11-19T03:42:58;137.50;;;54.83;;
42514;SDS011;28144;49.920;18.730;2023-11-19T03:45:24;121.70;;;47.83;;
42514;SDS011;28144;49.920;18.730;2023-11-19T03:47:50;132.85;;;53.00;;
42514;SDS011;28144;49.920;18.730;2023-11-19T03:50:17;126.70;;;52.60;;
42514;SDS011;28144;49.920;18.730;2023-11-19T03:52:49;117.93;;;49.60;;
42514;SDS011;28144;49.920;18.730;2023-11-19T03:55:15;119.22;;;50.25;;
42514;SDS011;28144;49.920;18.730;2023-11-19T03:57:41;112.18;;;43.95;;
42514;SDS011;28144;49.920;18.730;2023-11-19T04:00:07;104.53;;;40.93;;
42514;SDS011;28144;49.920;18.730;2023-11-19T04:02:36;116.30;;;47.77;;
42514;SDS011;28144;49.920;18.730;2023-11-19T04:05:03;99.93;;;42.85;;
42514;SDS011;28144;49.920;18.730;2023-11-19T04:07:31;98.77;;;40.70;;
42514;SDS011;28144;49.920;18.730;2023-11-19T04:09:57;93.80;;;39.60;;
42514;SDS011;28144;49.920;18.730;2023-11-19T04:12:23;96.93;;;40.60;;
42514;SDS011;28144;49.920;18.730;2023-11-19T04:14:49;118.60;;;47.37;;
42514;SDS011;28144;49.920;18.730;2023-11-19T04:17:16;111.88;;;44.65;;
42514;SDS011;28144;49.920;18.730;2023-11-19T04:19:41;94.23;;;41.23;;
42514;SDS011;28144;49.920;18.730;2023-11-19T04:22:09;114.57;;;45.53;;
42514;SDS011;28144;49.920;18.730;2023-11-19T04:24:35;117.00;;;47.80;;
42514;SDS011;28144;49.920;18.730;2023-11-19T04:27:01;116.80;;;47.65;;
42514;SDS011;28144;49.920;18.730;2023-11-19T04:29:27;123.07;;;50.07;;
42514;SDS011;28144;49.920;18.730;2023-11-19T04:31:53;106.05;;;46.63;;
42514;SDS011;28144;49.920;18.730;2023-11-19T04:34:20;109.35;;;46.42;;
42514;SDS011;28144;49.920;18.730;2023-11-19T04:36:46;111.07;;;43.35;;
42514;SDS011;28144;49.920;18.730;2023-11-19T04:39:12;109.70;;;41.77;;
42514;SDS011;28144;49.920;18.730;2023-11-19T04:44:17;99.68;;;40.28;;
42514;SDS011;28144;49.920;18.730;2023-11-19T04:46:44;99.65;;;40.70;;
42514;SDS011;28144;49.920;18.730;2023-11-19T04:49:10;102.55;;;42.17;;
42514;SDS011;28144;49.920;18.730;2023-11-19T04:51:40;104.93;;;41.47;;
42514;SDS011;28144;49.920;18.730;2023-11-19T04:54:07;97.50;;;40.70;;
42514;SDS011;28144;49.920;18.730;2023-11-19T04:56:35;97.53;;;40.00;;
42514;SDS011;28144;49.920;18.730;2023-11-19T04:59:03;101.87;;;41.13;;
42514;SDS011;28144;49.920;18.730;2023-11-19T05:01:31;116.80;;;52.57;;
42514;SDS011;28144;49.920;18.730;2023-11-19T05:03:58;112.07;;;47.43;;
42514;SDS011;28144;49.920;18.730;2023-11-19T05:06:31;111.28;;;45.35;;
42514;SDS011;28144;49.920;18.730;2023-11-19T05:09:00;108.80;;;47.77;;
42514;SDS011;28144;49.920;18.730;2023-11-19T05:11:27;125.63;;;52.40;;
42514;SDS011;28144;49.920;18.730;2023-11-19T05:13:53;128.15;;;54.45;;
42514;SDS011;28144;49.920;18.730;2023-11-19T05:16:20;144.02;;;59.90;;
42514;SDS011;28144;49.920;18.730;2023-11-19T05:18:46;148.35;;;59.35;;
42514;SDS011;28144;49.920;18.730;2023-11-19T05:21:12;160.93;;;62.10;;
42514;SDS011;28144;49.920;18.730;2023-11-19T05:23:39;166.70;;;65.82;;
42514;SDS011;28144;49.920;18.730;2023-11-19T05:26:05;126.53;;;51.15;;
42514;SDS011;28144;49.920;18.730;2023-11-19T05:28:31;125.80;;;47.60;;
42514;SDS011;28144;49.920;18.730;2023-11-19T05:30:57;139.95;;;51.80;;
42514;SDS011;28144;49.920;18.730;2023-11-19T05:33:23;197.33;;;70.17;;
42514;SDS011;28144;49.920;18.730;2023-11-19T05:35:49;177.55;;;68.88;;
42514;SDS011;28144;49.920;18.730;2023-11-19T05:38:15;161.90;;;60.53;;
42514;SDS011;28144;49.920;18.730;2023-11-19T05:40:41;140.13;;;53.30;;
42514;SDS011;28144;49.920;18.730;2023-11-19T05:43:07;143.00;;;54.63;;
42514;SDS011;28144;49.920;18.730;2023-11-19T05:45:33;123.15;;;47.88;;
42514;SDS011;28144;49.920;18.730;2023-11-19T05:47:59;101.87;;;41.50;;
42514;SDS011;28144;49.920;18.730;2023-11-19T05:50:30;99.07;;;40.60;;
42514;SDS011;28144;49.920;18.730;2023-11-19T05:52:56;98.93;;;38.37;;
42514;SDS011;28144;49.920;18.730;2023-11-19T05:55:22;84.03;;;34.25;;
42514;SDS011;28144;49.920;18.730;2023-11-19T05:57:51;96.37;;;40.57;;
42514;SDS011;28144;49.920;18.730;2023-11-19T06:00:17;118.30;;;42.55;;
42514;SDS011;28144;49.920;18.730;2023-11-19T06:02:43;96.07;;;40.47;;
42514;SDS011;28144;49.920;18.730;2023-11-19T06:05:09;103.57;;;43.15;;
42514;SDS011;28144;49.920;18.730;2023-11-19T06:07:35;81.83;;;35.93;;
42514;SDS011;28144;49.920;18.730;2023-11-19T06:10:02;74.60;;;34.38;;
42514;SDS011;28144;49.920;18.730;2023-11-19T06:12:31;94.87;;;38.63;;
42514;SDS011;28144;49.920;18.730;2023-11-19T06:14:59;88.07;;;36.47;;
42514;SDS011;28144;49.920;18.730;2023-11-19T06:17:26;122.65;;;47.85;;
42514;SDS011;28144;49.920;18.730;2023-11-19T06:19:55;479.73;;;151.80;;
42514;SDS011;28144;49.920;18.730;2023-11-19T06:22:21;165.57;;;63.27;;
42514;SDS011;28144;49.920;18.730;2023-11-19T06:24:47;139.63;;;49.35;;
42514;SDS011;28144;49.920;18.730;2023-11-19T06:27:13;105.23;;;43.07;;
42514;SDS011;28144;49.920;18.730;2023-11-19T06:29:40;171.45;;;53.85;;
42514;SDS011;28144;49.920;18.730;2023-11-19T06:32:06;293.47;;;76.77;;
42514;SDS011;28144;49.920;18.730;2023-11-19T06:34:34;359.00;;;87.20;;
42514;SDS011;28144;49.920;18.730;2023-11-19T06:37:00;396.52;;;97.03;;
42514;SDS011;28144;49.920;18.730;2023-11-19T06:39:30;287.50;;;75.70;;
42514;SDS011;28144;49.920;18.730;2023-11-19T06:41:56;203.30;;;59.22;;
42514;SDS011;28144;49.920;18.730;2023-11-19T06:44:23;160.05;;;48.63;;
42514;SDS011;28144;49.920;18.730;2023-11-19T06:49:16;145.40;;;45.80;;
42514;SDS011;28144;49.920;18.730;2023-11-19T06:51:42;90.63;;;34.77;;
42514;SDS011;28144;49.920;18.730;2023-11-19T06:54:09;70.50;;;33.07;;
42514;SDS011;28144;49.920;18.730;2023-11-19T06:56:38;82.60;;;37.13;;
42514;SDS011;28144;49.920;18.730;2023-11-19T06:59:04;103.55;;;46.38;;
42514;SDS011;28144;49.920;18.730;2023-11-19T07:01:36;109.57;;;45.53;;
42514;SDS011;28144;49.920;18.730;2023-11-19T07:04:03;128.67;;;52.83;;
42514;SDS011;28144;49.920;18.730;2023-11-19T07:06:35;135.07;;;61.03;;
42514;SDS011;28144;49.920;18.730;2023-11-19T07:09:04;103.27;;;45.90;;
42514;SDS011;28144;49.920;18.730;2023-11-19T07:11:35;106.07;;;48.37;;
42514;SDS011;28144;49.920;18.730;2023-11-19T07:14:04;107.20;;;46.87;;
42514;SDS011;28144;49.920;18.730;2023-11-19T07:16:33;97.80;;;47.83;;
42514;SDS011;28144;49.920;18.730;2023-11-19T07:19:08;94.77;;;44.87;;
42514;SDS011;28144;49.920;18.730;2023-11-19T07:21:34;98.53;;;44.60;;
42514;SDS011;28144;49.920;18.730;2023-11-19T07:24:12;87.63;;;43.93;;
42514;SDS011;28144;49.920;18.730;2023-11-19T07:26:43;94.70;;;43.13;;
42514;SDS011;28144;49.920;18.730;2023-11-19T07:29:10;96.17;;;43.00;;
42514;SDS011;28144;49.920;18.730;2023-11-19T07:31:36;94.83;;;42.40;;
42514;SDS011;28144;49.920;18.730;2023-11-19T07:34:05;110.93;;;47.93;;
42514;SDS011;28144;49.920;18.730;2023-11-19T07:36:31;105.63;;;49.47;;
42514;SDS011;28144;49.920;18.730;2023-11-19T07:38:58;119.70;;;50.88;;
42514;SDS011;28144;49.920;18.730;2023-11-19T07:41:24;203.23;;;70.43;;
42514;SDS011;28144;49.920;18.730;2023-11-19T07:43:52;175.63;;;63.23;;
42514;SDS011;28144;49.920;18.730;2023-11-19T07:46:18;113.35;;;51.05;;
42514;SDS011;28144;49.920;18.730;2023-11-19T07:48:47;100.90;;;43.70;;
42514;SDS011;28144;49.920;18.730;2023-11-19T07:51:13;100.32;;;46.80;;
42514;SDS011;28144;49.920;18.730;2023-11-19T07:53:41;107.65;;;45.88;;
42514;SDS011;28144;49.920;18.730;2023-11-19T07:56:07;103.75;;;46.15;;
42514;SDS011;28144;49.920;18.730;2023-11-19T07:58:33;93.88;;;41.17;;
42514;SDS011;28144;49.920;18.730;2023-11-19T08:01:02;101.97;;;42.97;;
42514;SDS011;28144;49.920;18.730;2023-11-19T08:03:29;100.90;;;43.20;;
42514;SDS011;28144;49.920;18.730;2023-11-19T08:05:59;114.73;;;46.43;;
42514;SDS011;28144;49.920;18.730;2023-11-19T08:08:25;103.00;;;44.80;;
42514;SDS011;28144;49.920;18.730;2023-11-19T08:10:51;128.90;;;51.27;;
42514;SDS011;28144;49.920;18.730;2023-11-19T08:13:19;126.10;;;53.10;;
42514;SDS011;28144;49.920;18.730;2023-11-19T08:15:45;138.98;;;56.67;;
42514;SDS011;28144;49.920;18.730;2023-11-19T08:18:11;130.73;;;55.90;;
42514;SDS011;28144;49.920;18.730;2023-11-19T08:20:37;148.53;;;60.83;;
42514;SDS011;28144;49.920;18.730;2023-11-19T08:23:03;195.75;;;67.35;;
42514;SDS011;28144;49.920;18.730;2023-11-19T08:25:30;284.90;;;80.13;;
42514;SDS011;28144;49.920;18.730;2023-11-19T08:27:56;441.77;;;113.05;;
42514;SDS011;28144;49.920;18.730;2023-11-19T08:30:22;458.97;;;120.37;;
42514;SDS011;28144;49.920;18.730;2023-11-19T08:32:47;298.00;;;81.33;;
42514;SDS011;28144;49.920;18.730;2023-11-19T08:35:13;161.60;;;47.00;;
42514;SDS011;28144;49.920;18.730;2023-11-19T08:37:39;77.40;;;29.75;;
42514;SDS011;28144;49.920;18.730;2023-11-19T08:40:08;60.27;;;24.00;;
42514;SDS011;28144;49.920;18.730;2023-11-19T08:42:38;58.90;;;23.33;;
42514;SDS011;28144;49.920;18.730;2023-11-19T08:45:05;44.73;;;20.00;;
42514;SDS011;28144;49.920;18.730;2023-11-19T08:47:31;39.97;;;18.63;;
42514;SDS011;28144;49.920;18.730;2023-11-19T08:49:57;38.47;;;18.03;;
42514;SDS011;28144;49.920;18.730;2023-11-19T08:52:23;35.80;;;16.90;;
42514;SDS011;28144;49.920;18.730;2023-11-19T08:54:49;35.60;;;15.63;;
42514;SDS011;28144;49.920;18.730;2023-11-19T08:57:15;31.07;;;13.07;;
42514;SDS011;28144;49.920;18.730;2023-11-19T08:59:41;32.53;;;17.73;;
42514;SDS011;28144;49.920;18.730;2023-11-19T09:02:07;26.52;;;14.20;;
42514;SDS011;28144;49.920;18.730;2023-11-19T09:04:34;25.30;;;12.45;;
42514;SDS011;28144;49.920;18.730;2023-11-19T09:07:01;23.60;;;12.63;;
42514;SDS011;28144;49.920;18.730;2023-11-19T09:11:54;20.75;;;9.27;;
42514;SDS011;28144;49.920;18.730;2023-11-19T09:14:20;18.50;;;8.40;;
42514;SDS011;28144;49.920;18.730;2023-11-19T09:16:51;20.40;;;9.70;;
42514;SDS011;28144;49.920;18.730;2023-11-19T09:19:18;15.63;;;8.43;;
42514;SDS011;28144;49.920;18.730;2023-11-19T09:21:44;17.15;;;8.10;;
42514;SDS011;28144;49.920;18.730;2023-11-19T09:24:10;15.73;;;7.47;;
42514;SDS011;28144;49.920;18.730;2023-11-19T09:26:36;15.30;;;7.57;;
42514;SDS011;28144;49.920;18.730;2023-11-19T09:29:02;12.60;;;6.77;;
42514;SDS011;28144;49.920;18.730;2023-11-19T09:31:28;10.80;;;6.05;;
42514;SDS011;28144;49.920;18.730;2023-11-19T09:33:53;13.13;;;6.23;;
42514;SDS011;28144;49.920;18.730;2023-11-19T09:36:19;11.33;;;5.80;;
42514;SDS011;28144;49.920;18.730;2023-11-19T09:38:45;8.87;;;5.30;;
42514;SDS011;28144;49.920;18.730;2023-11-19T09:41:11;11.83;;;5.10;;
42514;SDS011;28144;49.920;18.730;2023-11-19T09:43:39;8.70;;;4.90;;
42514;SDS011;28144;49.920;18.730;2023-11-19T09:48:36;12.25;;;6.00;;
42514;SDS011;28144;49.920;18.730;2023-11-19T09:51:06;8.23;;;4.90;;
42514;SDS011;28144;49.920;18.730;2023-11-19T09:53:35;9.70;;;4.67;;
42514;SDS011;28144;49.920;18.730;2023-11-19T09:56:03;8.80;;;5.07;;
42514;SDS011;28144;49.920;18.730;2023-11-19T09:58:34;7.40;;;4.50;;
42514;SDS011;28144;49.920;18.730;2023-11-19T10:01:00;10.00;;;4.60;;
42514;SDS011;28144;49.920;18.730;2023-11-19T10:03:32;9.50;;;4.73;;
42514;SDS011;28144;49.920;18.730;2023-11-19T10:06:03;8.33;;;5.10;;
42514;SDS011;28144;49.920;18.730;2023-11-19T10:08:30;9.77;;;5.53;;
42514;SDS011;28144;49.920;18.730;2023-11-19T10:10:56;9.48;;;5.20;;
42514;SDS011;28144;49.920;18.730;2023-11-19T10:13:28;7.30;;;4.80;;
42514;SDS011;28144;49.920;18.730;2023-11-19T10:15:58;9.57;;;5.50;;
42514;SDS011;28144;49.920;18.730;2023-11-19T10:18:24;9.07;;;4.87;;
42514;SDS011;28144;49.920;18.730;2023-11-19T10:20:51;9.63;;;5.07;;
42514;SDS011;28144;49.920;18.730;2023-11-19T10:23:20;9.57;;;4.83;;
42514;SDS011;28144;49.920;18.730;2023-11-19T10:25:47;9.43;;;5.57;;
42514;SDS011;28144;49.920;18.730;2023-11-19T10:31:58;9.03;;;4.93;;
42514;SDS011;28144;49.920;18.730;2023-11-19T10:34:27;9.43;;;4.87;;
42514;SDS011;28144;49.920;18.730;2023-11-19T10:36:55;9.20;;;5.00;;
42514;SDS011;28144;49.920;18.730;2023-11-19T10:39:22;8.93;;;4.70;;
42514;SDS011;28144;49.920;18.730;2023-11-19T10:41:50;9.10;;;5.07;;
42514;SDS011;28144;49.920;18.730;2023-11-19T10:44:31;10.17;;;5.33;;
42514;SDS011;28144;49.920;18.730;2023-11-19T10:47:01;9.37;;;5.87;;
42514;SDS011;28144;49.920;18.730;2023-11-19T10:49:28;10.52;;;5.53;;
42514;SDS011;28144;49.920;18.730;2023-11-19T10:51:54;9.43;;;5.60;;
42514;SDS011;28144;49.920;18.730;2023-11-19T10:54:23;9.57;;;5.60;;
42514;SDS011;28144;49.920;18.730;2023-11-19T10:56:51;14.10;;;6.22;;
42514;SDS011;28144;49.920;18.730;2023-11-19T10:59:20;12.70;;;7.73;;
42514;SDS011;28144;49.920;18.730;2023-11-19T11:01:48;12.80;;;7.10;;
42514;SDS011;28144;49.920;18.730;2023-11-19T11:04:23;12.02;;;6.88;;
42514;SDS011;28144;49.920;18.730;2023-11-19T11:06:54;11.47;;;6.83;;
42514;SDS011;28144;49.920;18.730;2023-11-19T11:09:22;11.83;;;6.70;;
42514;SDS011;28144;49.920;18.730;2023-11-19T11:11:57;13.38;;;7.40;;
42514;SDS011;28144;49.920;18.730;2023-11-19T11:14:25;15.53;;;7.57;;
42514;SDS011;28144;49.920;18.730;2023-11-19T11:16:53;14.13;;;7.57;;
42514;SDS011;28144;49.920;18.730;2023-11-19T11:19:19;17.20;;;8.30;;
42514;SDS011;28144;49.920;18.730;2023-11-19T11:21:46;15.53;;;8.20;;
42514;SDS011;28144;49.920;18.730;2023-11-19T11:38:22;18.80;;;9.50;;
42514;SDS011;28144;49.920;18.730;2023-11-19T11:41:23;16.45;;;8.68;;
42514;SDS011;28144;49.920;18.730;2023-11-19T11:43:49;15.02;;;8.30;;
42514;SDS011;28144;49.920;18.730;2023-11-19T11:49:05;18.27;;;9.77;;
42514;SDS011;28144;49.920;18.730;2023-11-19T11:54:11;13.23;;;8.43;;
42514;SDS011;28144;49.920;18.730;2023-11-19T11:59:48;14.17;;;8.20;;
42514;SDS011;28144;49.920;18.730;2023-11-19T12:02:19;13.40;;;7.70;;
42514;SDS011;28144;49.920;18.730;2023-11-19T12:04:50;13.07;;;6.57;;
42514;SDS011;28144;49.920;18.730;2023-11-19T12:07:18;12.17;;;6.70;;
42514;SDS011;28144;49.920;18.730;2023-11-19T12:09:48;12.10;;;6.27;;
42514;SDS011;28144;49.920;18.730;2023-11-19T12:12:42;10.87;;;6.00;;
42514;SDS011;28144;49.920;18.730;2023-11-19T12:15:08;10.25;;;5.43;;
42514;SDS011;28144;49.920;18.730;2023-11-19T12:17:36;12.00;;;5.37;;
42514;SDS011;28144;49.920;18.730;2023-11-19T12:20:06;9.10;;;5.43;;
42514;SDS011;28144;49.920;18.730;2023-11-19T12:22:37;12.20;;;6.07;;
42514;SDS011;28144;49.920;18.730;2023-11-19T12:25:07;9.98;;;5.85;;
42514;SDS011;28144;49.920;18.730;2023-11-19T12:27:41;10.43;;;5.90;;
42514;SDS011;28144;49.920;18.730;2023-11-19T12:30:09;9.23;;;6.27;;
42514;SDS011;28144;49.920;18.730;2023-11-19T12:32:42;14.18;;;6.68;;
42514;SDS011;28144;49.920;18.730;2023-11-19T12:35:09;10.63;;;6.77;;
42514;SDS011;28144;49.920;18.730;2023-11-19T12:37:42;13.57;;;7.10;;
42514;SDS011;28144;49.920;18.730;2023-11-19T12:40:18;11.80;;;7.30;;
42514;SDS011;28144;49.920;18.730;2023-11-19T12:43:24;11.63;;;7.30;;
42514;SDS011;28144;49.920;18.730;2023-11-19T12:48:58;16.13;;;8.37;;
42514;SDS011;28144;49.920;18.730;2023-11-19T12:51:30;15.20;;;8.50;;
42514;SDS011;28144;49.920;18.730;2023-11-19T12:55:05;13.37;;;6.83;;
42514;SDS011;28144;49.920;18.730;2023-11-19T12:57:49;13.60;;;7.97;;
42514;SDS011;28144;49.920;18.730;2023-11-19T13:00:19;15.77;;;8.30;;
42514;SDS011;28144;49.920;18.730;2023-11-19T13:02:49;15.73;;;8.90;;
42514;SDS011;28144;49.920;18.730;2023-11-19T13:05:32;14.93;;;8.83;;
42514;SDS011;28144;49.920;18.730;2023-11-19T13:11:39;24.83;;;10.90;;
42514;SDS011;28144;49.920;18.730;2023-11-19T13:17:28;18.50;;;9.50;;
42514;SDS011;28144;49.920;18.730;2023-11-19T13:19:54;21.30;;;11.10;;
42514;SDS011;28144;49.920;18.730;2023-11-19T13:22:22;19.93;;;10.60;;
42514;SDS011;28144;49.920;18.730;2023-11-19T13:24:51;20.53;;;10.93;;
42514;SDS011;28144;49.920;18.730;2023-11-19T13:27:20;18.57;;;10.60;;
42514;SDS011;28144;49.920;18.730;2023-11-19T13:29:46;20.98;;;11.38;;
42514;SDS011;28144;49.920;18.730;2023-11-19T13:32:12;19.70;;;11.50;;
42514;SDS011;28144;49.920;18.730;2023-11-19T13:34:39;21.58;;;11.50;;
42514;SDS011;28144;49.920;18.730;2023-11-19T13:37:05;20.07;;;11.80;;
42514;SDS011;28144;49.920;18.730;2023-11-19T13:39:41;22.30;;;12.07;;
42514;SDS011;28144;49.920;18.730;2023-11-19T13:42:07;18.50;;;10.93;;
42514;SDS011;28144;49.920;18.730;2023-11-19T13:44:34;19.88;;;11.70;;
42514;SDS011;28144;49.920;18.730;2023-11-19T13:47:00;21.30;;;11.13;;
42514;SDS011;28144;49.920;18.730;2023-11-19T13:49:26;19.92;;;11.63;;
42514;SDS011;28144;49.920;18.730;2023-11-19T13:51:53;25.73;;;14.10;;
42514;SDS011;28144;49.920;18.730;2023-11-19T13:54:20;24.65;;;13.15;;
42514;SDS011;28144;49.920;18.730;2023-11-19T13:56:46;20.80;;;12.65;;
42514;SDS011;28144;49.920;18.730;2023-11-19T13:59:13;23.80;;;12.98;;
42514;SDS011;28144;49.920;18.730;2023-11-19T14:01:39;25.73;;;13.43;;
42514;SDS011;28144;49.920;18.730;2023-11-19T14:04:05;24.17;;;12.63;;
42514;SDS011;28144;49.920;18.730;2023-11-19T14:06:31;24.27;;;13.40;;
42514;SDS011;28144;49.920;18.730;2023-11-19T14:08:57;23.75;;;12.20;;
42514;SDS011;28144;49.920;18.730;2023-11-19T14:11:23;25.53;;;12.83;;
42514;SDS011;28144;49.920;18.730;2023-11-19T14:13:49;22.17;;;13.10;;
42514;SDS011;28144;49.920;18.730;2023-11-19T14:16:15;23.10;;;13.10;;
42514;SDS011;28144;49.920;18.730;2023-11-19T14:18:41;27.05;;;13.18;;
42514;SDS011;28144;49.920;18.730;2023-11-19T14:21:07;24.00;;;12.57;;
42514;SDS011;28144;49.920;18.730;2023-11-19T14:23:33;25.83;;;13.27;;
42514;SDS011;28144;49.920;18.730;2023-11-19T14:25:59;25.60;;;13.60;;
42514;SDS011;28144;49.920;18.730;2023-11-19T14:28:25;24.10;;;13.47;;
42514;SDS011;28144;49.920;18.730;2023-11-19T14:30:51;30.38;;;14.40;;
42514;SDS011;28144;49.920;18.730;2023-11-19T14:33:24;23.60;;;13.80;;
42514;SDS011;28144;49.920;18.730;2023-11-19T14:35:52;27.80;;;13.83;;
42514;SDS011;28144;49.920;18.730;2023-11-19T14:38:33;26.23;;;13.83;;
42514;SDS011;28144;49.920;18.730;2023-11-19T14:40:59;25.10;;;12.52;;
42514;SDS011;28144;49.920;18.730;2023-11-19T14:43:30;24.13;;;12.80;;
42514;SDS011;28144;49.920;18.730;2023-11-19T14:45:56;23.67;;;11.68;;
42514;SDS011;28144;49.920;18.730;2023-11-19T14:48:22;25.00;;;12.37;;
42514;SDS011;28144;49.920;18.730;2023-11-19T14:50:48;19.47;;;11.27;;
42514;SDS011;28144;49.920;18.730;2023-11-19T14:53:13;21.63;;;11.33;;
42514;SDS011;28144;49.920;18.730;2023-11-19T14:55:40;19.43;;;9.87;;
42514;SDS011;28144;49.920;18.730;2023-11-19T14:58:06;20.17;;;9.40;;
42514;SDS011;28144;49.920;18.730;2023-11-19T15:04:13;18.73;;;7.70;;
42514;SDS011;28144;49.920;18.730;2023-11-19T15:10:26;17.33;;;6.67;;